createdAt,value
2023-01-21T00:02:06.167Z,4.96
2023-01-21T00:04:47.362Z,4.89
2023-01-21T00:07:51.681Z,4.35
2023-01-21T00:10:43.041Z,4.77
2023-01-21T00:13:28.420Z,4.95
2023-01-21T00:15:59.290Z,4.46
2023-01-21T00:19:29.178Z,4.64
2023-01-21T00:22:13.386Z,4.62
2023-01-21T00:25:34.032Z,4.73
2023-01-21T00:28:13.975Z,4.91
2023-01-21T00:31:00.583Z,5.20
2023-01-21T00:33:39.665Z,5.40
2023-01-21T00:36:29.697Z,5.57
2023-01-21T00:39:21.209Z,5.50
2023-01-21T00:42:08.852Z,5.56
2023-01-21T00:45:18.249Z,5.15
2023-01-21T00:49:03.568Z,4.85
2023-01-21T00:51:44.051Z,4.70
2023-01-21T00:54:18.028Z,4.76
2023-01-21T00:57:16.920Z,4.86
2023-01-21T00:59:58.900Z,5.02
2023-01-21T01:02:46.949Z,5.11
2023-01-21T01:05:33.565Z,4.86
2023-01-21T01:08:52.727Z,4.69
2023-01-21T01:12:12.473Z,4.83
2023-01-21T01:15:47.353Z,4.56
2023-01-21T01:18:24.634Z,4.36
2023-01-21T01:20:53.587Z,4.34
2023-01-21T01:24:23.373Z,4.54
2023-01-21T01:27:04.212Z,4.78
2023-01-21T01:29:49.205Z,4.72
2023-01-21T01:32:23.308Z,4.68
2023-01-21T01:35:17.366Z,4.62
2023-01-21T01:38:16.159Z,4.77
2023-01-21T01:41:30.282Z,4.82
2023-01-21T01:44:58.216Z,5.02
2023-01-21T01:48:11.216Z,5.10
2023-01-21T01:51:07.537Z,4.79
2023-01-21T01:54:31.521Z,4.96
2023-01-21T01:58:04.007Z,5.22
2023-01-21T02:01:13.656Z,5.35
2023-01-21T02:04:02.709Z,5.60
2023-01-21T02:07:00.676Z,5.37
2023-01-21T02:10:32.848Z,5.42
2023-01-21T02:13:27.322Z,5.40
2023-01-21T02:17:07.301Z,5.16
2023-01-21T02:20:51.411Z,5.39
2023-01-21T02:25:17.481Z,5.16
2023-01-21T02:28:57.062Z,5.14
2023-01-21T02:32:52.955Z,5.04
2023-01-21T02:36:27.149Z,4.99
2023-01-21T02:39:44.095Z,5.21
2023-01-21T02:43:22.210Z,5.51
2023-01-21T02:47:42.242Z,5.68
2023-01-21T02:51:16.427Z,5.82
2023-01-21T02:55:11.294Z,5.76
2023-01-21T02:58:35.717Z,5.98
2023-01-21T03:02:44.136Z,6.14
2023-01-21T03:06:43.351Z,5.98
2023-01-21T03:10:15.994Z,6.15
2023-01-21T03:14:16.666Z,6.12
2023-01-21T03:17:57.954Z,5.99
2023-01-21T03:21:17.687Z,6.15
2023-01-21T03:24:20.794Z,6.30
2023-01-21T03:27:27.848Z,6.54
2023-01-21T03:30:43.932Z,6.65
2023-01-21T03:33:24.618Z,6.59
2023-01-21T03:37:01.788Z,6.70
2023-01-21T03:41:11.705Z,6.92
2023-01-21T03:44:03.246Z,7.16
2023-01-21T03:47:37.274Z,7.21
2023-01-21T03:51:12.274Z,6.97
2023-01-21T03:54:21.341Z,7.07
2023-01-21T03:57:55.117Z,7.20
2023-01-21T04:01:22.886Z,7.34
2023-01-21T04:05:24.908Z,7.17
2023-01-21T04:08:03.859Z,7.18
2023-01-21T04:10:51.634Z,7.23
2023-01-21T04:13:58.107Z,7.35
2023-01-21T04:16:54.753Z,7.51
2023-01-21T04:20:07.337Z,7.67
2023-01-21T04:23:01.247Z,7.74
2023-01-21T04:26:23.273Z,7.86
2023-01-21T04:29:03.633Z,7.80
2023-01-21T04:32:10.232Z,7.79
2023-01-21T04:34:44.288Z,7.74
2023-01-21T04:37:48.334Z,7.80
2023-01-21T04:40:48.091Z,7.94
2023-01-21T04:43:22.358Z,8.06
2023-01-21T04:46:11.026Z,8.23
2023-01-21T04:50:10.826Z,7.87
2023-01-21T04:54:05.145Z,6.31
2023-01-21T04:57:21.731Z,5.38
2023-01-21T05:00:49.753Z,6.13
2023-01-21T05:03:32.422Z,7.06
2023-01-21T05:06:20.254Z,7.37
2023-01-21T05:09:32.778Z,7.56
2023-01-21T05:12:18.035Z,7.75
2023-01-21T05:14:49.399Z,7.85
2023-01-21T05:17:50.389Z,7.92
2023-01-21T09:07:46.924Z,6.58
2023-01-21T09:11:39.001Z,7.27
2023-01-21T09:15:47.862Z,7.71
2023-01-21T09:19:49.721Z,8.14
2023-01-21T09:23:14.522Z,8.24
2023-01-21T09:27:22.865Z,8.53
2023-01-21T09:31:22.285Z,8.54
2023-01-21T09:34:59.623Z,8.77
2023-01-21T09:38:49.741Z,8.73
2023-01-21T09:42:59.095Z,7.25
2023-01-21T09:47:08.491Z,7.34
2023-01-21T09:51:27.061Z,8.29
2023-01-21T09:55:16.622Z,8.75
2023-01-21T09:59:30.181Z,8.40
2023-01-21T10:03:36.045Z,8.02
2023-01-21T10:07:28.008Z,8.67
2023-01-21T10:11:27.694Z,7.43
2023-01-21T10:15:53.644Z,7.42
2023-01-21T10:19:53.480Z,8.34
2023-01-21T10:23:24.363Z,8.37
2023-01-21T10:27:23.655Z,7.16
2023-01-21T10:31:59.481Z,6.29
2023-01-21T10:36:10.375Z,7.04
2023-01-21T10:40:43.698Z,8.14
2023-01-21T10:45:05.178Z,8.53
2023-01-21T10:49:38.736Z,7.22
2023-01-21T10:53:52.711Z,6.72
2023-01-21T10:58:15.882Z,7.60
2023-01-21T11:02:20.498Z,8.00
2023-01-21T11:06:08.802Z,7.90
2023-01-21T11:09:58.038Z,6.70
2023-01-21T11:13:48.603Z,6.06
2023-01-21T11:18:01.208Z,7.03
2023-01-21T11:22:22.658Z,7.82
2023-01-21T11:26:19.310Z,8.18
2023-01-21T11:30:48.358Z,6.92
2023-01-21T11:34:38.603Z,6.32
2023-01-21T11:38:48.081Z,7.35
2023-01-21T11:42:57.302Z,8.27
2023-01-21T11:47:19.123Z,8.06
2023-01-21T11:51:31.359Z,6.80
2023-01-21T11:55:40.785Z,6.67
2023-01-21T11:59:53.715Z,8.06
2023-01-21T12:03:48.149Z,8.60
2023-01-21T12:07:44.261Z,7.86
2023-01-21T12:11:53.843Z,7.24
2023-01-21T12:16:07.980Z,6.78
2023-01-21T12:20:33.005Z,7.45
2023-01-21T12:24:42.201Z,8.55
2023-01-21T12:28:48.829Z,8.17
2023-01-21T12:33:19.213Z,6.93
2023-01-21T12:37:48.597Z,6.05
2023-01-21T12:42:10.364Z,6.39
2023-01-21T12:46:20.891Z,7.69
2023-01-21T12:50:25.023Z,8.15
2023-01-21T12:55:00.483Z,8.30
2023-01-21T12:59:08.245Z,6.78
2023-01-21T13:03:36.035Z,5.70
2023-01-21T13:07:57.015Z,6.58
2023-01-21T13:11:58.832Z,7.20
2023-01-21T13:16:13.211Z,7.61
2023-01-21T13:20:22.687Z,8.03
2023-01-21T13:24:43.971Z,7.13
2023-01-21T13:29:02.205Z,5.83
2023-01-21T13:33:29.631Z,5.02
2023-01-21T13:37:50.894Z,4.48
2023-01-21T13:42:01.653Z,5.75
2023-01-21T13:46:15.220Z,6.70
2023-01-21T13:50:49.428Z,7.23
2023-01-21T13:55:06.451Z,7.47
2023-01-21T13:59:34.106Z,7.79
2023-01-21T14:03:47.911Z,7.01
2023-01-21T14:07:57.807Z,5.66
2023-01-21T14:12:06.127Z,4.90
2023-01-21T14:16:24.192Z,5.85
2023-01-21T14:20:28.515Z,6.55
2023-01-21T14:25:06.002Z,6.83
2023-01-21T14:29:08.062Z,7.21
2023-01-21T14:33:25.203Z,7.41
2023-01-21T14:37:37.419Z,7.63
2023-01-21T14:40:38.271Z,6.72
2023-01-21T14:44:45.356Z,5.63
2023-01-21T14:49:13.557Z,4.62
2023-01-21T14:53:22.872Z,3.92
2023-01-21T14:57:34.169Z,3.43
2023-01-21T15:01:33.926Z,3.61
2023-01-21T15:06:01.334Z,5.00
2023-01-21T15:09:57.701Z,5.81
2023-01-21T15:14:10.051Z,6.35
2023-01-21T15:18:23.887Z,6.76
2023-01-21T15:23:00.571Z,7.08
2023-01-21T15:27:00.859Z,7.38
2023-01-21T15:30:58.904Z,7.36
2023-01-21T15:34:55.197Z,5.96
2023-01-21T15:38:53.822Z,4.81
2023-01-21T15:43:20.279Z,4.07
2023-01-21T15:47:52.606Z,3.44
2023-01-21T15:51:47.126Z,3.01
2023-01-21T15:56:20.310Z,3.96
2023-01-21T16:01:18.651Z,5.34
2023-01-21T16:05:32.405Z,6.00
2023-01-21T16:09:58.433Z,6.35
2023-01-21T16:14:13.789Z,6.69
2023-01-21T16:18:41.441Z,7.02
2023-01-21T16:22:30.635Z,6.96
2023-01-21T16:26:40.313Z,5.55
2023-01-21T16:29:46.320Z,4.40
2023-01-21T16:32:42.223Z,3.90
2023-01-21T16:35:51.486Z,3.42
2023-01-21T16:38:34.550Z,3.10
2023-01-21T16:41:31.907Z,2.84
2023-01-21T16:44:11.604Z,2.76
2023-01-21T16:46:46.536Z,3.57
2023-01-21T16:49:25.560Z,4.47
2023-01-21T16:52:37.406Z,5.15
2023-01-21T16:55:25.946Z,5.73
2023-01-21T16:57:56.443Z,6.14
2023-01-21T17:01:19.953Z,6.41
2023-01-21T17:04:59.730Z,6.74
2023-01-21T17:08:03.976Z,7.03
2023-01-21T17:10:58.990Z,7.25
2023-01-21T17:14:11.067Z,7.26
2023-01-21T17:16:42.635Z,6.17
2023-01-21T17:19:46.100Z,5.32
2023-01-21T17:22:44.331Z,4.56
2023-01-21T17:25:24.667Z,4.00
2023-01-21T17:28:43.322Z,3.56
2023-01-21T17:31:44.120Z,3.35
2023-01-21T17:34:32.862Z,4.27
2023-01-21T17:38:03.869Z,4.99
2023-01-21T17:40:46.720Z,5.65
2023-01-21T17:43:27.306Z,6.02
2023-01-21T17:46:22.637Z,6.24
2023-01-21T17:50:02.198Z,6.41
2023-01-21T17:53:21.546Z,6.63
2023-01-21T17:56:51.703Z,6.84
2023-01-21T17:59:46.077Z,7.10
2023-01-21T18:02:25.214Z,7.31
2023-01-21T18:04:59.588Z,7.48
2023-01-21T18:08:41.964Z,6.91
2023-01-21T18:11:41.194Z,5.54
2023-01-21T18:15:03.357Z,4.79
2023-01-21T18:17:59.098Z,4.15
2023-01-21T18:20:50.516Z,4.12
2023-01-21T18:23:51.811Z,4.91
2023-01-21T18:26:51.574Z,5.47
2023-01-21T18:29:43.723Z,5.89
2023-01-21T18:33:35.750Z,6.12
2023-01-21T18:37:13.590Z,6.39
2023-01-21T18:39:44.811Z,6.64
2023-01-21T18:42:17.459Z,6.84
2023-01-21T18:45:08.260Z,7.04
2023-01-21T18:48:09.426Z,7.20
2023-01-21T18:50:43.228Z,6.44
2023-01-21T18:54:05.113Z,5.51
2023-01-21T18:57:01.851Z,4.65
2023-01-21T18:59:33.866Z,4.17
2023-01-21T19:02:57.017Z,4.64
2023-01-21T19:05:34.231Z,5.55
2023-01-21T19:08:28.824Z,6.07
2023-01-21T19:11:09.175Z,6.33
2023-01-21T19:14:03.335Z,6.50
2023-01-21T19:16:55.071Z,6.69
2023-01-21T19:20:30.122Z,6.85
2023-01-21T19:23:54.807Z,7.02
2023-01-21T19:26:28.406Z,7.18
2023-01-21T19:29:07.605Z,7.27
2023-01-21T19:32:31.649Z,7.38
2023-01-21T19:35:27.033Z,6.48
2023-01-21T19:38:46.509Z,5.50
2023-01-21T19:42:03.324Z,4.68
2023-01-21T19:45:40.519Z,4.01
2023-01-21T19:48:17.899Z,3.50
2023-01-21T19:50:54.612Z,3.17
2023-01-21T19:54:16.915Z,2.91
2023-01-21T19:58:05.917Z,3.77
2023-01-21T20:00:54.769Z,4.93
2023-01-21T20:04:19.642Z,5.49
2023-01-21T20:07:54.279Z,6.05
2023-01-21T20:10:29.645Z,6.43
2023-01-21T20:13:12.325Z,6.64
2023-01-21T20:15:51.278Z,6.84
2023-01-21T20:19:04.173Z,6.99
2023-01-21T20:21:59.916Z,7.17
2023-01-21T20:25:33.573Z,7.25
2023-01-21T20:29:10.097Z,6.42
2023-01-21T20:31:54.463Z,5.10
2023-01-21T20:34:31.708Z,4.46
2023-01-21T20:37:59.182Z,4.00
2023-01-21T20:41:39.772Z,4.60
2023-01-21T20:44:41.804Z,5.46
2023-01-21T20:47:50.171Z,5.91
2023-01-21T20:50:37.145Z,6.22
2023-01-21T20:54:25.076Z,6.49
2023-01-21T20:57:35.139Z,6.82
2023-01-21T21:00:45.544Z,7.03
2023-01-21T21:03:27.357Z,7.21
2023-01-21T21:06:47.532Z,6.71
2023-01-21T21:10:01.874Z,5.33
2023-01-21T21:12:55.711Z,4.37
2023-01-21T21:15:53.476Z,3.75
2023-01-21T21:18:24.516Z,3.29
2023-01-21T21:21:07.131Z,3.05
2023-01-21T21:23:47.698Z,3.71
2023-01-21T21:26:39.516Z,4.55
2023-01-21T21:29:15.068Z,5.19
2023-01-21T21:31:46.455Z,5.61
2023-01-21T21:34:33.946Z,5.69
2023-01-21T21:37:25.558Z,5.70
2023-01-21T21:39:57.263Z,5.93
2023-01-21T21:42:52.316Z,6.07
2023-01-21T21:45:23.277Z,6.27
2023-01-21T21:48:15.753Z,6.34
2023-01-21T21:51:38.262Z,6.41
2023-01-21T21:54:10.623Z,6.61
2023-01-21T21:56:42.491Z,6.76
2023-01-21T21:59:54.517Z,6.91
2023-01-21T22:02:30.300Z,6.14
2023-01-21T22:05:23.721Z,4.95
2023-01-21T22:08:35.523Z,4.02
2023-01-21T22:11:22.605Z,3.27
2023-01-21T22:14:04.041Z,2.90
2023-01-21T22:16:44.467Z,2.65
2023-01-21T22:19:57.936Z,3.20
2023-01-21T22:22:26.363Z,4.19
2023-01-21T22:25:10.827Z,4.65
2023-01-21T22:27:58.864Z,4.57
2023-01-21T22:30:41.148Z,5.07
2023-01-21T22:33:10.759Z,5.32
2023-01-21T22:35:50.315Z,5.56
2023-01-21T22:39:01.284Z,5.85
2023-01-21T22:42:02.629Z,5.96
2023-01-21T22:45:22.868Z,5.93
2023-01-21T22:48:30.004Z,6.06
2023-01-21T22:51:23.009Z,6.09
2023-01-21T22:54:09.051Z,6.12
2023-01-21T22:56:52.293Z,6.29
2023-01-21T22:59:32.007Z,6.31
2023-01-21T23:02:32.376Z,6.36
2023-01-21T23:05:26.834Z,5.98
2023-01-21T23:08:18.612Z,5.64
2023-01-21T23:11:04.207Z,5.79
2023-01-21T23:13:56.174Z,5.98
2023-01-21T23:17:16.819Z,6.09
2023-01-21T23:19:56.620Z,6.16
2023-01-21T23:22:30.733Z,6.22
2023-01-21T23:25:04.438Z,6.32
2023-01-21T23:28:24.630Z,6.39
2023-01-21T23:31:18.708Z,6.49
2023-01-21T23:34:03.771Z,6.53
2023-01-21T23:37:15.735Z,6.47
2023-01-21T23:41:07.750Z,6.17
2023-01-21T23:44:34.064Z,4.58
2023-01-21T23:47:24.547Z,4.86
2023-01-21T23:50:48.484Z,5.17
2023-01-21T23:53:56.840Z,5.33
2023-01-21T23:57:22.560Z,5.40
